Time;durP1;ratioP1;P1;durP2;ratioP2;P2;SDS_P1;SDS_P2;PMS_P1;PMS_P2;Temp;Humidity;BMP_temperature;BMP_pressure;BME280_temperature;BME280_humidity;BME280_pressure;Samples;Min_cycle;Max_cycle;Signal;HPM_P1;HPM_P2
2021/12/30 00:01:33;;;;;;;0.30;0.30;;;14.40;99.90;;;;;;4986331;28;20220;-65
2021/12/30 00:04:00;;;;;;;0.30;0.30;;;14.40;99.90;;;;;;4990168;28;20232;-65
2021/12/30 00:06:29;;;;;;;0.30;0.30;;;14.50;99.90;;;;;;4988988;28;20319;-67
2021/12/30 00:08:56;;;;;;;0.20;0.20;;;14.40;99.90;;;;;;4988830;28;20232;-66
2021/12/30 00:11:24;;;;;;;0.30;0.30;;;14.40;99.90;;;;;;4990191;28;20220;-66
2021/12/30 00:13:50;;;;;;;0.40;0.40;;;14.50;99.90;;;;;;4988657;28;20225;-65
2021/12/30 00:16:19;;;;;;;0.20;0.20;;;14.50;99.90;;;;;;4985961;28;20206;-67
2021/12/30 00:18:47;;;;;;;0.20;0.20;;;14.50;99.90;;;;;;4980644;28;20981;-65
2021/12/30 00:21:14;;;;;;;0.10;0.10;;;14.50;99.90;;;;;;4986389;28;20292;-66
2021/12/30 00:23:42;;;;;;;0.10;0.10;;;14.50;99.90;;;;;;4996163;28;20270;-65
2021/12/30 00:26:09;;;;;;;0.27;0.27;;;14.60;99.90;;;;;;5005979;28;20226;-66
2021/12/30 00:28:36;;;;;;;0.40;0.40;;;14.60;99.90;;;;;;4990016;28;20753;-67
2021/12/30 00:31:04;;;;;;;0.93;0.20;;;14.60;99.90;;;;;;4990969;28;20202;-65
2021/12/30 00:33:34;;;;;;;0.20;0.20;;;14.60;99.90;;;;;;4990382;28;20577;-66
2021/12/30 00:36:02;;;;;;;0.20;0.20;;;14.60;99.90;;;;;;4989386;28;20212;-66
2021/12/30 00:38:29;;;;;;;0.20;0.20;;;14.60;99.90;;;;;;4990412;28;20755;-66
2021/12/30 00:40:56;;;;;;;0.20;0.20;;;14.60;99.90;;;;;;4990631;28;20607;-66
2021/12/30 00:43:23;;;;;;;0.20;0.20;;;14.60;99.90;;;;;;4987556;28;20312;-66
2021/12/30 00:45:50;;;;;;;0.20;0.20;;;14.60;99.90;;;;;;4989908;28;20285;-65
2021/12/30 00:48:17;;;;;;;0.20;0.20;;;14.60;99.90;;;;;;4989150;28;20237;-64
2021/12/30 00:50:46;;;;;;;0.40;0.40;;;14.60;99.90;;;;;;4985179;28;20202;-66
2021/12/30 00:53:13;;;;;;;0.27;0.23;;;14.90;99.90;;;;;;4989809;28;20216;-65
2021/12/30 00:55:41;;;;;;;0.10;0.10;;;14.60;99.90;;;;;;4990191;28;20630;-65
2021/12/30 00:58:09;;;;;;;0.30;0.30;;;14.60;99.90;;;;;;4988700;28;20222;-66
2021/12/30 01:00:38;;;;;;;0.30;0.30;;;14.60;99.90;;;;;;4991316;28;20237;-65
2021/12/30 01:03:05;;;;;;;0.20;0.20;;;14.60;99.90;;;;;;4993920;28;20234;-67
2021/12/30 01:05:33;;;;;;;0.27;0.27;;;14.60;99.90;;;;;;4991643;28;20304;-66
2021/12/30 01:08:02;;;;;;;0.30;0.30;;;14.60;99.90;;;;;;4991529;28;20230;-68
2021/12/30 01:10:30;;;;;;;0.20;0.20;;;14.50;99.90;;;;;;4991972;28;20202;-66
2021/12/30 01:13:00;;;;;;;0.17;0.17;;;14.50;99.90;;;;;;4992127;28;20241;-64
2021/12/30 01:15:34;;;;;;;0.40;0.40;;;14.60;99.90;;;;;;4992085;28;20210;-66
2021/12/30 01:18:23;;;;;;;0.30;0.30;;;14.50;99.90;;;;;;4998464;28;20321;-68
2021/12/30 01:20:51;;;;;;;0.20;0.20;;;14.60;99.90;;;;;;5018924;28;20189;-67
2021/12/30 01:23:19;;;;;;;0.37;0.37;;;14.50;99.90;;;;;;5019522;28;20214;-66
2021/12/30 01:25:46;;;;;;;0.30;0.30;;;14.60;99.90;;;;;;5018244;28;20225;-65
2021/12/30 01:28:13;;;;;;;0.30;0.30;;;14.50;99.90;;;;;;5017321;28;20253;-64
2021/12/30 01:30:40;;;;;;;0.30;0.30;;;14.60;99.90;;;;;;5017445;28;20221;-66
2021/12/30 01:33:07;;;;;;;0.30;0.30;;;14.60;99.90;;;;;;5014953;28;20238;-66
2021/12/30 01:35:34;;;;;;;0.20;0.20;;;14.60;99.90;;;;;;5012390;28;20543;-64
2021/12/30 01:38:02;;;;;;;0.10;0.10;;;14.60;99.90;;;;;;5013424;28;20253;-65
2021/12/30 01:40:32;;;;;;;0.27;0.20;;;14.60;99.90;;;;;;4995213;28;20268;-66
2021/12/30 01:42:59;;;;;;;0.33;0.30;;;14.60;99.90;;;;;;5003169;28;20213;-66
2021/12/30 01:45:27;;;;;;;0.27;0.27;;;14.60;99.90;;;;;;5010530;28;20268;-66
2021/12/30 01:47:57;;;;;;;0.37;0.37;;;14.60;99.90;;;;;;5005202;28;20664;-66
2021/12/30 01:50:25;;;;;;;0.30;0.30;;;14.60;99.90;;;;;;5007983;28;20312;-66
2021/12/30 01:52:53;;;;;;;0.20;0.20;;;14.70;99.90;;;;;;4997113;28;20636;-65
2021/12/30 01:55:24;;;;;;;0.30;0.30;;;14.70;99.90;;;;;;4995793;28;20245;-68
2021/12/30 01:57:53;;;;;;;0.30;0.30;;;14.70;99.90;;;;;;4993988;28;20236;-65
2021/12/30 02:00:26;;;;;;;0.20;0.20;;;14.80;99.90;;;;;;4994685;28;20738;-65
2021/12/30 02:02:54;;;;;;;0.30;0.30;;;14.80;99.90;;;;;;4995949;28;20265;-66
2021/12/30 02:05:21;;;;;;;0.40;0.40;;;14.80;99.90;;;;;;4995832;28;20241;-65
2021/12/30 02:07:48;;;;;;;0.23;0.23;;;14.80;99.90;;;;;;4991601;28;20253;-66
2021/12/30 02:10:16;;;;;;;0.20;0.20;;;14.80;99.90;;;;;;4991017;28;20329;-66
2021/12/30 02:12:46;;;;;;;0.20;0.20;;;14.80;99.90;;;;;;4993656;28;20201;-67
2021/12/30 02:15:17;;;;;;;0.37;0.37;;;14.80;99.90;;;;;;4993325;28;20210;-65
2021/12/30 02:17:48;;;;;;;0.20;0.20;;;14.70;99.90;;;;;;4993129;28;20305;-67
2021/12/30 02:20:47;;;;;;;0.40;0.40;;;14.70;99.90;;;;;;5000062;28;20202;-65
2021/12/30 02:23:17;;;;;;;0.27;0.27;;;14.80;99.90;;;;;;4994221;28;20284;-67
2021/12/30 02:25:44;;;;;;;0.30;0.30;;;14.80;99.90;;;;;;4994924;28;20241;-65
2021/12/30 02:28:14;;;;;;;0.10;0.10;;;14.80;99.90;;;;;;4994385;28;20320;-66
2021/12/30 02:30:41;;;;;;;0.20;0.20;;;14.70;99.90;;;;;;4995179;28;20228;-66
2021/12/30 02:33:08;;;;;;;0.30;0.30;;;14.80;99.90;;;;;;4997276;28;20241;-66
2021/12/30 02:35:37;;;;;;;0.33;0.33;;;14.80;99.90;;;;;;5004570;28;20225;-64
2021/12/30 02:38:05;;;;;;;0.17;0.17;;;14.80;99.90;;;;;;5005269;28;20309;-66
2021/12/30 02:40:36;;;;;;;0.40;0.40;;;14.80;99.90;;;;;;5006928;28;20547;-66
2021/12/30 02:43:05;;;;;;;0.10;0.10;;;14.70;99.90;;;;;;5000335;28;20556;-66
2021/12/30 02:45:32;;;;;;;0.23;0.23;;;14.80;99.90;;;;;;4994627;28;20677;-65
2021/12/30 02:47:59;;;;;;;0.10;0.10;;;14.70;99.90;;;;;;4990640;28;20324;-67
2021/12/30 02:50:26;;;;;;;0.10;0.10;;;14.70;99.90;;;;;;4989789;28;20220;-66
2021/12/30 02:52:54;;;;;;;0.30;0.30;;;14.70;99.90;;;;;;4982712;28;20202;-65
2021/12/30 02:55:21;;;;;;;0.10;0.10;;;14.70;99.90;;;;;;4990428;28;20222;-70
2021/12/30 02:57:48;;;;;;;0.40;0.30;;;14.70;99.90;;;;;;4990837;28;20674;-67
2021/12/30 03:00:16;;;;;;;0.20;0.20;;;14.80;99.90;;;;;;4991272;28;20743;-66
2021/12/30 03:02:43;;;;;;;0.20;0.20;;;14.80;99.90;;;;;;4991617;28;20293;-67
2021/12/30 03:05:14;;;;;;;0.20;0.20;;;14.80;99.90;;;;;;4991208;28;20695;-65
2021/12/30 03:07:41;;;;;;;0.20;0.20;;;14.80;99.90;;;;;;4988565;28;20324;-67
2021/12/30 03:10:15;;;;;;;0.30;0.20;;;14.80;99.90;;;;;;4991796;28;20284;-66
2021/12/30 03:12:41;;;;;;;0.10;0.10;;;14.70;99.90;;;;;;4992101;28;20257;-67
2021/12/30 03:15:12;;;;;;;0.10;0.10;;;14.80;99.90;;;;;;4992259;28;20274;-66
2021/12/30 03:17:39;;;;;;;0.20;0.20;;;14.80;99.90;;;;;;4993942;28;20304;-66
2021/12/30 03:20:09;;;;;;;0.00;0.00;;;14.80;99.90;;;;;;4992694;28;20205;-68
2021/12/30 03:22:36;;;;;;;0.20;0.20;;;14.80;99.90;;;;;;4991237;28;20209;-66
2021/12/30 03:25:03;;;;;;;0.20;0.20;;;14.80;99.90;;;;;;4992704;28;20293;-67
2021/12/30 03:27:32;;;;;;;0.20;0.20;;;14.80;99.90;;;;;;4991817;28;20305;-66
2021/12/30 03:29:58;;;;;;;0.20;0.20;;;14.80;99.90;;;;;;4997251;28;20216;-66
2021/12/30 03:32:25;;;;;;;0.20;0.20;;;14.80;99.90;;;;;;5001774;28;20237;-66
2021/12/30 03:34:52;;;;;;;0.13;0.13;;;14.80;99.90;;;;;;5000397;28;20237;-65
2021/12/30 03:37:19;;;;;;;0.20;0.20;;;14.70;99.90;;;;;;4993702;28;20640;-65
2021/12/30 03:39:48;;;;;;;0.20;0.20;;;14.70;99.90;;;;;;4991721;28;20234;-67
2021/12/30 03:42:15;;;;;;;0.30;0.30;;;14.70;99.90;;;;;;4990406;28;20202;-67
2021/12/30 03:44:44;;;;;;;0.10;0.10;;;14.60;99.90;;;;;;4990965;28;20224;-65
2021/12/30 03:47:13;;;;;;;0.20;0.20;;;14.60;99.90;;;;;;4990780;28;20297;-66
2021/12/30 03:49:44;;;;;;;0.20;0.20;;;14.50;99.90;;;;;;5000850;28;20194;-65
2021/12/30 03:52:11;;;;;;;0.23;0.23;;;14.50;99.90;;;;;;4994179;28;20197;-67
2021/12/30 03:54:38;;;;;;;0.20;0.20;;;14.60;99.90;;;;;;4990566;28;20573;-66
2021/12/30 03:57:05;;;;;;;0.30;0.23;;;14.50;99.90;;;;;;4990022;28;20324;-66
2021/12/30 03:59:32;;;;;;;0.30;0.30;;;14.50;99.90;;;;;;4990489;28;20249;-64
2021/12/30 04:02:00;;;;;;;0.30;0.30;;;14.50;99.90;;;;;;4990326;28;20686;-67
2021/12/30 04:04:27;;;;;;;0.30;0.30;;;14.50;99.90;;;;;;4990269;28;20296;-65
2021/12/30 04:06:54;;;;;;;0.20;0.20;;;14.50;99.90;;;;;;4989737;28;20301;-66
2021/12/30 04:09:21;;;;;;;0.30;0.30;;;14.40;99.90;;;;;;4990593;28;20659;-66
2021/12/30 04:11:48;;;;;;;0.20;0.20;;;14.40;99.90;;;;;;4991221;28;20674;-67
2021/12/30 04:14:15;;;;;;;0.20;0.20;;;14.40;99.90;;;;;;4992022;28;20202;-67
2021/12/30 04:16:42;;;;;;;0.50;0.50;;;14.40;99.90;;;;;;4990244;28;20238;-65
2021/12/30 04:19:11;;;;;;;0.30;0.23;;;14.40;99.90;;;;;;4990965;28;20313;-66
2021/12/30 04:21:38;;;;;;;0.30;0.30;;;14.40;99.90;;;;;;4990656;28;20736;-66
2021/12/30 04:24:05;;;;;;;0.13;0.13;;;14.50;99.90;;;;;;4990819;28;20297;-65
2021/12/30 04:26:32;;;;;;;0.30;0.30;;;14.50;99.90;;;;;;4990943;28;20293;-66
2021/12/30 04:28:59;;;;;;;0.53;0.10;;;14.60;99.90;;;;;;5017241;22;20730;-64
2021/12/30 04:31:26;;;;;;;0.10;0.10;;;14.60;99.90;;;;;;5003764;28;20205;-63
2021/12/30 04:33:53;;;;;;;0.20;0.17;;;14.60;99.90;;;;;;5010399;28;20232;-62
2021/12/30 04:36:21;;;;;;;0.33;0.33;;;14.70;99.90;;;;;;5010515;28;20205;-64
2021/12/30 04:38:48;;;;;;;0.20;0.20;;;14.70;99.90;;;;;;5005219;28;20684;-64
2021/12/30 04:41:15;;;;;;;0.13;0.13;;;14.70;99.90;;;;;;4990800;28;20300;-63
2021/12/30 04:43:42;;;;;;;0.30;0.30;;;14.80;99.90;;;;;;4991148;28;20232;-64
2021/12/30 04:46:09;;;;;;;0.20;0.20;;;14.80;99.90;;;;;;4991709;28;20232;-64
2021/12/30 04:48:35;;;;;;;0.20;0.20;;;14.80;99.90;;;;;;4989815;28;20240;-64
2021/12/30 04:51:03;;;;;;;0.10;0.10;;;14.80;99.90;;;;;;4981304;28;20296;-63
2021/12/30 04:53:31;;;;;;;0.10;0.10;;;14.80;99.90;;;;;;4992881;28;20253;-64
2021/12/30 04:55:58;;;;;;;0.30;0.30;;;14.90;99.90;;;;;;4996149;28;20206;-64
2021/12/30 04:58:25;;;;;;;0.10;0.10;;;14.90;99.90;;;;;;4995724;28;20759;-64
2021/12/30 05:00:52;;;;;;;0.10;0.10;;;15.00;99.90;;;;;;4996169;28;20320;-63
2021/12/30 05:03:21;;;;;;;0.20;0.20;;;15.00;99.90;;;;;;4996221;28;20294;-62
2021/12/30 05:05:49;;;;;;;0.20;0.20;;;15.10;99.90;;;;;;4996475;28;20301;-63
2021/12/30 05:08:18;;;;;;;0.43;0.43;;;15.10;99.90;;;;;;4995351;28;20232;-62
2021/12/30 05:10:48;;;;;;;0.20;0.20;;;15.10;99.90;;;;;;4996032;28;20293;-64
2021/12/30 05:13:15;;;;;;;0.30;0.30;;;15.00;99.90;;;;;;4995386;28;20692;-64
2021/12/30 05:15:42;;;;;;;0.10;0.10;;;15.10;99.90;;;;;;4995575;28;20209;-63
2021/12/30 05:18:11;;;;;;;0.10;0.10;;;15.00;99.90;;;;;;4995429;28;20239;-62
2021/12/30 05:20:38;;;;;;;0.10;0.10;;;15.00;99.90;;;;;;4995704;28;20296;-64
2021/12/30 05:23:06;;;;;;;0.17;0.17;;;15.00;99.90;;;;;;4995453;28;20200;-63
2021/12/30 05:25:33;;;;;;;0.30;0.30;;;15.10;99.90;;;;;;4995685;28;20210;-62
2021/12/30 05:28:01;;;;;;;0.20;0.20;;;15.10;99.90;;;;;;4995453;28;20210;-63
2021/12/30 05:30:28;;;;;;;0.20;0.20;;;15.00;99.90;;;;;;4995547;28;20241;-63
2021/12/30 05:32:57;;;;;;;0.20;0.20;;;15.00;99.90;;;;;;4996284;28;20249;-64
2021/12/30 05:35:24;;;;;;;0.20;0.20;;;15.00;99.90;;;;;;4999476;28;20274;-64
2021/12/30 05:37:52;;;;;;;0.23;0.23;;;15.00;99.90;;;;;;5003049;28;20229;-64
2021/12/30 05:40:21;;;;;;;0.30;0.30;;;15.00;99.90;;;;;;4995868;28;20715;-62
2021/12/30 05:42:48;;;;;;;0.20;0.20;;;15.00;99.90;;;;;;4996332;28;20220;-63
2021/12/30 05:45:18;;;;;;;0.20;0.20;;;15.00;99.90;;;;;;4996253;28;20210;-62
2021/12/30 05:47:46;;;;;;;0.27;0.27;;;15.00;99.90;;;;;;4995497;28;20244;-63
2021/12/30 05:50:15;;;;;;;0.20;0.20;;;15.00;99.90;;;;;;4995345;28;20236;-62
2021/12/30 05:52:42;;;;;;;0.20;0.20;;;15.00;99.90;;;;;;4996771;28;20202;-63
2021/12/30 05:55:10;;;;;;;0.30;0.30;;;15.00;99.90;;;;;;4995796;28;20221;-64
2021/12/30 05:57:37;;;;;;;0.17;0.17;;;14.90;99.90;;;;;;4995763;28;20210;-65
2021/12/30 06:00:05;;;;;;;0.20;0.20;;;14.80;99.90;;;;;;5013245;28;20285;-64
2021/12/30 06:02:33;;;;;;;0.20;0.20;;;14.80;99.90;;;;;;5014693;28;20206;-64
2021/12/30 06:05:00;;;;;;;0.30;0.30;;;14.80;99.90;;;;;;5012925;28;20241;-64
2021/12/30 06:07:27;;;;;;;0.20;0.20;;;14.80;99.90;;;;;;5015859;28;20209;-63
2021/12/30 06:09:54;;;;;;;0.20;0.20;;;14.70;99.90;;;;;;5008317;28;20229;-63
2021/12/30 06:12:21;;;;;;;0.20;0.20;;;14.60;99.90;;;;;;4999815;28;20300;-65
2021/12/30 06:14:48;;;;;;;0.30;0.30;;;14.60;99.90;;;;;;4996133;28;20288;-63
2021/12/30 06:17:15;;;;;;;0.10;0.10;;;14.60;99.90;;;;;;4995939;28;20321;-63
2021/12/30 06:19:44;;;;;;;0.25;0.25;;;14.60;99.90;;;;;;4996287;28;20266;-62
2021/12/30 06:22:11;;;;;;;0.10;0.10;;;14.60;99.90;;;;;;4994883;28;20297;-64
2021/12/30 06:24:38;;;;;;;0.10;0.10;;;14.60;99.90;;;;;;4994629;28;20708;-62
2021/12/30 06:27:05;;;;;;;0.17;0.17;;;14.70;99.90;;;;;;4994625;28;20216;-63
2021/12/30 06:29:33;;;;;;;0.10;0.10;;;14.70;99.90;;;;;;4994694;28;20269;-62
2021/12/30 06:32:00;;;;;;;0.30;0.30;;;14.70;99.90;;;;;;5005907;28;20297;-62
2021/12/30 06:34:27;;;;;;;0.20;0.20;;;14.80;99.90;;;;;;5014539;28;20217;-62
2021/12/30 06:36:55;;;;;;;0.20;0.20;;;14.80;99.90;;;;;;5005662;28;20271;-64
2021/12/30 06:39:22;;;;;;;0.30;0.30;;;14.80;99.90;;;;;;4999417;28;20234;-64
2021/12/30 06:41:49;;;;;;;0.50;0.50;;;14.80;99.90;;;;;;4997478;28;20206;-62
2021/12/30 06:44:16;;;;;;;0.10;0.10;;;14.80;99.90;;;;;;4994340;28;20252;-65
2021/12/30 06:46:51;;;;;;;0.30;0.30;;;14.80;99.90;;;;;;4994257;28;20654;-64
2021/12/30 06:49:18;;;;;;;0.10;0.10;;;14.80;99.90;;;;;;4995167;28;20265;-64
2021/12/30 06:51:45;;;;;;;0.30;0.30;;;14.80;99.90;;;;;;4995642;28;20285;-63
2021/12/30 06:54:13;;;;;;;0.27;0.27;;;14.80;99.90;;;;;;4994919;28;20201;-62
2021/12/30 06:56:40;;;;;;;0.30;0.30;;;14.80;99.90;;;;;;4994945;28;20252;-63
2021/12/30 06:59:07;;;;;;;0.27;0.27;;;14.80;99.90;;;;;;4994550;28;20730;-64
2021/12/30 07:01:34;;;;;;;0.40;0.40;;;14.80;99.90;;;;;;5003353;28;20242;-62
2021/12/30 07:04:01;;;;;;;0.10;0.10;;;14.90;99.90;;;;;;5008681;28;20578;-63
2021/12/30 07:06:28;;;;;;;0.20;0.20;;;14.80;99.90;;;;;;4995997;28;20289;-63
2021/12/30 07:08:54;;;;;;;0.30;0.30;;;14.90;99.90;;;;;;4994297;28;20226;-62
2021/12/30 07:11:23;;;;;;;0.50;0.50;;;15.00;99.90;;;;;;4994821;28;20216;-64
2021/12/30 07:13:49;;;;;;;0.03;0.03;;;14.90;99.90;;;;;;4994225;28;20296;-62
2021/12/30 07:16:16;;;;;;;0.10;0.10;;;14.90;99.90;;;;;;4993495;28;20770;-62
2021/12/30 07:18:43;;;;;;;0.20;0.20;;;15.00;99.90;;;;;;4993814;28;20224;-62
2021/12/30 07:21:10;;;;;;;0.27;0.27;;;15.00;99.90;;;;;;4993681;28;20301;-62
2021/12/30 07:23:37;;;;;;;0.37;0.37;;;15.00;99.90;;;;;;4992548;28;20209;-64
2021/12/30 07:26:04;;;;;;;0.30;0.30;;;15.00;99.90;;;;;;4993758;28;20277;-63
2021/12/30 07:28:32;;;;;;;0.40;0.40;;;15.00;99.90;;;;;;4994177;28;20332;-64
2021/12/30 07:30:59;;;;;;;0.30;0.30;;;15.00;99.90;;;;;;4984483;28;20297;-67
2021/12/30 07:33:26;;;;;;;0.30;0.30;;;15.00;99.90;;;;;;4977824;28;20571;-62
2021/12/30 07:35:53;;;;;;;0.40;0.40;;;14.90;99.90;;;;;;4981082;28;20207;-64
2021/12/30 07:38:20;;;;;;;0.40;0.40;;;14.90;99.90;;;;;;4974739;28;20293;-63
2021/12/30 07:40:47;;;;;;;0.30;0.30;;;14.90;99.90;;;;;;4982957;28;20202;-62
2021/12/30 07:43:13;;;;;;;0.40;0.40;;;14.90;99.90;;;;;;4984834;28;20226;-64
2021/12/30 07:45:42;;;;;;;0.50;0.50;;;14.90;99.90;;;;;;4980943;28;20290;-64
2021/12/30 07:48:09;;;;;;;0.20;0.20;;;14.90;99.90;;;;;;4960326;28;20199;-63
2021/12/30 07:50:36;;;;;;;0.50;0.50;;;14.90;99.90;;;;;;4960665;28;20334;-63
2021/12/30 07:53:03;;;;;;;0.53;0.53;;;14.80;99.90;;;;;;4957641;28;20278;-63
2021/12/30 07:55:30;;;;;;;0.40;0.40;;;14.80;99.90;;;;;;4954851;28;20283;-65
2021/12/30 07:57:58;;;;;;;0.27;0.27;;;14.90;99.90;;;;;;4956726;28;20235;-63
2021/12/30 08:00:26;;;;;;;0.40;0.40;;;14.90;99.90;;;;;;4957274;28;20247;-64
2021/12/30 08:02:55;;;;;;;0.20;0.20;;;14.90;99.90;;;;;;4962266;28;20210;-64
2021/12/30 08:05:22;;;;;;;0.30;0.30;;;14.80;99.90;;;;;;4968114;28;20298;-62
2021/12/30 08:07:49;;;;;;;0.20;0.20;;;14.80;99.90;;;;;;4960381;28;20279;-64
2021/12/30 08:10:18;;;;;;;0.40;0.40;;;14.80;99.90;;;;;;4961539;28;20238;-65
2021/12/30 08:12:48;;;;;;;0.43;0.43;;;14.90;99.90;;;;;;4962467;28;20207;-63
2021/12/30 08:15:16;;;;;;;0.20;0.20;;;14.80;99.90;;;;;;4989736;28;20202;-64
2021/12/30 08:17:44;;;;;;;0.10;0.10;;;14.80;99.90;;;;;;4986060;28;20221;-64
2021/12/30 08:20:15;;;;;;;0.27;0.27;;;14.80;99.90;;;;;;4986875;28;20293;-64
2021/12/30 08:22:42;;;;;;;0.40;0.40;;;14.80;99.90;;;;;;4999988;28;20209;-65
2021/12/30 08:25:11;;;;;;;0.40;0.40;;;14.80;99.90;;;;;;4988022;28;20230;-63
2021/12/30 08:27:39;;;;;;;0.30;0.30;;;14.80;99.90;;;;;;4974647;28;20261;-63
2021/12/30 08:30:10;;;;;;;0.53;0.53;;;14.80;99.90;;;;;;4976431;28;20293;-62
2021/12/30 08:32:36;;;;;;;0.50;0.50;;;14.80;99.90;;;;;;4979044;28;20230;-62
2021/12/30 08:35:04;;;;;;;0.60;0.60;;;14.80;99.90;;;;;;4974961;28;20202;-64
2021/12/30 08:37:34;;;;;;;0.57;0.57;;;14.80;99.90;;;;;;4973190;28;20203;-64
2021/12/30 08:40:01;;;;;;;0.50;0.50;;;14.90;99.90;;;;;;4973815;28;20227;-63
2021/12/30 08:42:30;;;;;;;0.40;0.40;;;14.80;99.90;;;;;;4981596;28;20233;-62
2021/12/30 08:44:59;;;;;;;0.30;0.30;;;14.80;99.90;;;;;;4986129;28;20293;-63
2021/12/30 08:47:27;;;;;;;0.30;0.30;;;14.80;99.90;;;;;;4989860;28;20234;-64
2021/12/30 08:49:55;;;;;;;0.50;0.50;;;14.80;99.90;;;;;;4969865;28;20313;-62
2021/12/30 08:52:23;;;;;;;0.60;0.60;;;14.80;99.90;;;;;;4969778;28;20290;-61
2021/12/30 08:54:53;;;;;;;0.67;0.67;;;14.90;99.90;;;;;;4971891;28;20238;-63
2021/12/30 08:57:21;;;;;;;0.50;0.50;;;14.90;99.90;;;;;;4977728;28;20203;-62
2021/12/30 08:59:48;;;;;;;0.60;0.60;;;14.90;99.90;;;;;;4991565;28;20584;-62
2021/12/30 09:02:15;;;;;;;0.50;0.50;;;14.90;99.90;;;;;;4992849;28;20217;-62
2021/12/30 09:04:45;;;;;;;0.40;0.40;;;14.90;99.90;;;;;;4993162;28;20237;-62
2021/12/30 09:07:13;;;;;;;0.30;0.30;;;14.90;99.90;;;;;;4992909;28;20227;-64
2021/12/30 09:09:40;;;;;;;0.30;0.30;;;14.90;99.90;;;;;;4973111;28;20767;-63
2021/12/30 09:12:10;;;;;;;0.40;0.40;;;14.90;99.90;;;;;;4972415;28;20285;-63
2021/12/30 09:14:37;;;;;;;0.50;0.50;;;14.90;99.90;;;;;;4984547;28;20237;-63
2021/12/30 09:17:05;;;;;;;0.60;0.60;;;14.90;99.90;;;;;;4979084;28;20203;-63
2021/12/30 09:19:31;;;;;;;0.40;0.40;;;14.90;99.90;;;;;;4973150;28;20258;-61
2021/12/30 09:21:59;;;;;;;0.50;0.50;;;14.90;99.90;;;;;;4973178;28;20238;-64
2021/12/30 09:24:25;;;;;;;0.30;0.30;;;14.90;99.90;;;;;;4973309;28;20249;-61
2021/12/30 09:26:52;;;;;;;0.40;0.40;;;14.90;99.90;;;;;;4972476;28;20217;-63
2021/12/30 09:29:21;;;;;;;0.20;0.20;;;15.00;99.90;;;;;;4976536;28;20332;-63
2021/12/30 09:31:50;;;;;;;0.27;0.27;;;15.00;99.90;;;;;;4985782;28;20238;-63
2021/12/30 09:34:17;;;;;;;0.33;0.33;;;15.00;99.90;;;;;;4980077;28;20218;-63
2021/12/30 09:36:44;;;;;;;0.40;0.40;;;15.10;99.90;;;;;;4973582;28;20232;-63
2021/12/30 09:39:13;;;;;;;0.40;0.40;;;15.10;99.90;;;;;;4974113;28;20237;-63
2021/12/30 09:41:43;;;;;;;0.30;0.30;;;15.10;99.90;;;;;;4983091;28;20286;-63
2021/12/30 09:44:12;;;;;;;0.40;0.40;;;15.10;99.90;;;;;;4978209;28;20217;-63
2021/12/30 09:46:40;;;;;;;0.50;0.50;;;15.10;99.90;;;;;;4982709;28;20257;-63
2021/12/30 09:49:10;;;;;;;0.40;0.40;;;15.10;99.90;;;;;;4967053;28;20235;-63
2021/12/30 09:51:37;;;;;;;0.40;0.40;;;15.10;99.90;;;;;;4985315;28;20269;-63
2021/12/30 09:54:05;;;;;;;0.50;0.50;;;15.20;99.90;;;;;;4978704;28;20213;-63
2021/12/30 09:56:32;;;;;;;0.30;0.30;;;15.20;99.90;;;;;;4976390;28;20229;-63
2021/12/30 09:58:59;;;;;;;0.40;0.40;;;15.20;99.90;;;;;;4976168;28;20313;-62
2021/12/30 10:01:26;;;;;;;0.37;0.37;;;15.20;99.90;;;;;;4976105;28;20215;-63
2021/12/30 10:03:57;;;;;;;0.47;0.47;;;15.30;99.90;;;;;;4976353;28;20211;-62
2021/12/30 10:06:25;;;;;;;0.40;0.40;;;15.30;99.90;;;;;;4979165;28;20238;-63
2021/12/30 10:08:57;;;;;;;0.30;0.30;;;15.40;99.90;;;;;;4977776;28;20234;-62
2021/12/30 10:11:28;;;;;;;0.40;0.40;;;15.40;99.90;;;;;;4977194;28;20241;-62
2021/12/30 10:13:57;;;;;;;0.27;0.27;;;15.40;99.90;;;;;;4980098;28;20206;-63
2021/12/30 10:16:25;;;;;;;0.30;0.30;;;15.40;99.90;;;;;;4979424;28;20724;-63
2021/12/30 10:18:57;;;;;;;0.30;0.30;;;15.40;99.90;;;;;;4979365;28;20634;-63
2021/12/30 10:21:26;;;;;;;0.37;0.37;;;15.40;99.90;;;;;;4981393;28;20207;-64
2021/12/30 10:23:56;;;;;;;0.40;0.40;;;15.40;99.90;;;;;;4981469;28;20576;-63
2021/12/30 10:26:23;;;;;;;0.40;0.40;;;15.40;99.90;;;;;;4979477;28;20199;-63
2021/12/30 10:28:51;;;;;;;0.30;0.30;;;15.30;99.90;;;;;;4979432;28;20258;-63
2021/12/30 10:31:22;;;;;;;0.33;0.33;;;15.40;99.90;;;;;;5032996;22;20236;-66
2021/12/30 10:34:00;;;;;;;0.47;0.47;;;15.30;99.90;;;;;;5035192;28;20205;-65
2021/12/30 10:36:28;;;;;;;0.40;0.40;;;15.40;99.90;;;;;;5035397;28;20262;-65
2021/12/30 10:39:14;;;;;;;0.20;0.20;;;15.40;99.90;;;;;;5035702;28;20292;-66
2021/12/30 10:41:41;;;;;;;0.20;0.20;;;15.40;99.90;;;;;;5020620;28;20219;-67
2021/12/30 10:44:08;;;;;;;0.20;0.20;;;15.40;99.90;;;;;;5033448;28;20296;-66
2021/12/30 10:46:36;;;;;;;0.30;0.30;;;15.40;99.90;;;;;;5035435;28;20270;-65
2021/12/30 10:49:06;;;;;;;0.30;0.30;;;15.40;99.90;;;;;;5035558;28;20648;-67
2021/12/30 10:51:39;;;;;;;0.33;0.33;;;15.40;99.90;;;;;;5035265;28;20267;-65
2021/12/30 10:54:16;;;;;;;0.30;0.30;;;15.40;99.90;;;;;;5035528;28;20639;-66
2021/12/30 10:56:47;;;;;;;0.13;0.13;;;15.40;99.90;;;;;;5035193;28;20262;-66
2021/12/30 10:59:27;;;;;;;0.23;0.23;;;15.40;99.90;;;;;;5036589;28;20243;-66
2021/12/30 11:01:57;;;;;;;0.20;0.20;;;15.40;99.90;;;;;;5036445;28;20199;-67
2021/12/30 11:04:36;;;;;;;0.30;0.30;;;15.40;99.90;;;;;;5036765;28;20239;-66
2021/12/30 11:07:04;;;;;;;0.40;0.40;;;15.50;99.90;;;;;;5047212;28;20208;-65
2021/12/30 11:09:31;;;;;;;0.40;0.40;;;15.50;99.90;;;;;;5043027;28;20196;-65
2021/12/30 11:12:00;;;;;;;0.30;0.30;;;15.50;99.90;;;;;;5046230;28;20240;-66
2021/12/30 11:14:30;;;;;;;0.30;0.30;;;15.50;99.90;;;;;;5047767;28;20470;-64
2021/12/30 11:17:05;;;;;;;0.27;0.27;;;15.50;99.90;;;;;;5046377;28;20490;-67
2021/12/30 11:19:36;;;;;;;0.30;0.30;;;15.50;99.90;;;;;;5027220;28;20279;-66
2021/12/30 11:22:06;;;;;;;0.50;0.50;;;15.60;99.90;;;;;;5036545;28;20290;-66
2021/12/30 11:24:34;;;;;;;0.60;0.40;;;15.60;99.90;;;;;;5035835;28;20259;-66
2021/12/30 11:27:05;;;;;;;0.30;0.30;;;15.60;99.90;;;;;;5034627;28;20228;-66
2021/12/30 11:29:34;;;;;;;0.40;0.40;;;15.60;99.90;;;;;;5035517;28;20576;-66
2021/12/30 11:32:09;;;;;;;0.40;0.40;;;15.60;99.90;;;;;;5037185;28;20221;-65
2021/12/30 11:34:37;;;;;;;0.30;0.30;;;15.70;99.90;;;;;;5044014;28;20222;-66
2021/12/30 11:37:05;;;;;;;0.30;0.30;;;15.60;99.90;;;;;;5050366;28;20204;-66
2021/12/30 11:39:32;;;;;;;0.40;0.40;;;15.60;99.90;;;;;;5049492;28;20283;-66
2021/12/30 11:42:05;;;;;;;0.50;0.50;;;15.70;99.90;;;;;;5051955;28;20197;-65
2021/12/30 11:44:42;;;;;;;0.57;0.57;;;15.60;99.90;;;;;;5047796;28;20215;-66
2021/12/30 11:47:30;;;;;;;0.40;0.40;;;15.60;99.90;;;;;;5043140;28;20192;-65
2021/12/30 11:50:01;;;;;;;0.30;0.30;;;15.70;99.90;;;;;;5038270;28;20235;-65
2021/12/30 11:52:47;;;;;;;0.50;0.50;;;15.70;99.90;;;;;;5033404;28;20251;-66
2021/12/30 11:55:52;;;;;;;0.43;0.43;;;15.70;99.90;;;;;;5031483;28;20307;-66
2021/12/30 11:58:47;;;;;;;0.20;0.20;;;15.70;99.90;;;;;;5030886;28;20291;-65
2021/12/30 12:01:47;;;;;;;0.20;0.20;;;15.80;99.90;;;;;;5028159;28;20299;-65
2021/12/30 12:04:26;;;;;;;0.20;0.20;;;15.80;99.90;;;;;;5031054;28;20276;-66
2021/12/30 12:07:05;;;;;;;0.40;0.40;;;15.80;99.90;;;;;;5031305;28;20203;-65
2021/12/30 12:09:34;;;;;;;0.37;0.37;;;15.90;99.90;;;;;;5032006;28;20254;-66
2021/12/30 12:12:03;;;;;;;0.40;0.40;;;15.90;99.90;;;;;;5032407;28;20310;-66
2021/12/30 12:14:32;;;;;;;0.30;0.30;;;15.80;99.90;;;;;;5032426;28;20576;-66
2021/12/30 12:17:05;;;;;;;0.20;0.20;;;15.90;99.90;;;;;;5029583;28;20284;-66
2021/12/30 12:19:38;;;;;;;0.23;0.23;;;15.90;99.90;;;;;;5035285;28;20212;-67
2021/12/30 12:22:09;;;;;;;0.30;0.30;;;15.90;99.90;;;;;;5039470;28;20201;-66
2021/12/30 12:24:40;;;;;;;0.20;0.20;;;15.90;99.90;;;;;;5038239;28;20269;-66
2021/12/30 12:27:11;;;;;;;0.40;0.40;;;15.90;99.90;;;;;;5029596;28;20197;-66
2021/12/30 12:29:46;;;;;;;0.33;0.33;;;15.90;99.90;;;;;;5035962;28;20239;-67
2021/12/30 12:32:15;;;;;;;0.40;0.40;;;16.00;99.90;;;;;;5032777;28;20255;-66
2021/12/30 12:34:45;;;;;;;0.20;0.20;;;15.90;99.90;;;;;;5031704;28;20640;-66
2021/12/30 12:37:52;;;;;;;0.60;0.60;;;15.90;99.90;;;;;;5033788;28;20197;-67
2021/12/30 12:40:34;;;;;;;0.30;0.30;;;16.00;99.90;;;;;;4973467;28;20246;-64
2021/12/30 12:43:08;;;;;;;0.23;0.23;;;16.00;99.90;;;;;;4973272;28;20854;-64
2021/12/30 12:45:37;;;;;;;0.20;0.20;;;16.00;99.90;;;;;;4972820;28;20203;-66
2021/12/30 12:48:25;;;;;;;0.20;0.20;;;15.90;99.90;;;;;;4973910;28;20206;-65
2021/12/30 12:50:54;;;;;;;0.20;0.20;;;16.00;99.90;;;;;;4972382;28;20241;-65
2021/12/30 12:53:42;;;;;;;0.20;0.20;;;15.90;99.90;;;;;;4963838;28;20210;-67
2021/12/30 12:56:11;;;;;;;0.30;0.30;;;15.90;99.90;;;;;;4963361;28;20203;-66
2021/12/30 12:58:40;;;;;;;0.30;0.30;;;15.90;99.90;;;;;;4968193;28;20310;-63